Giatto, West Virginia
Current Conditions -  °F | °C
As of 2:52 AM on Sunday 21 Dec 2014 (Local Time) from KBLF Reporting Station
Overcast Overcast  
Wind Chill: 33°   Ceiling: 1600
Heat Index: 33°   Visibility: 10mi
Dew Point: 29°   Wind: 0mph
Humidity: 85%   Direction: NA
Pressure: 30.19"   Gusts: NA
Location:  37.4544°N, 81.2833°W
Report Text: KBLF 210752Z AUTO 00000KT 10SM OVC016 01/M02 A3019 RMK AO2 SLP237 T00061017
Loading
Personal Weather Stations






























Interactive Weather Map New forecast layout! Learn more

10-Day Weather Forecast

Advertisements
Track Severe Weather on mobile